Adrian, MI

7:17 PM EST on February 05, 2016 (GMT -0500)
APRSWXNET | | Change Station
CLOSE
Current Station
Personal Weather Station
Location: Adrian, MI
Elevation: 790 ft
Nearby Weather Stations

Elev 790 ft 41.88 °N, 84.05 °W | Updated 27 minutes ago

Partly Cloudy
Partly Cloudy
32 °F
Feels Like 32 °F
N
0
Wind Variable Wind from NW
Gusts 4.0 mph

Today
High -- | Low -- °F
--% Chance of Precip.
Yesterday
High -- | Low -- °F
Precip. -- in
Pressure 30.35 in
Visibility 10.0 miles
Clouds Few 5500 ft
Windchill 32 °F
Dew Point 26 °F
Humidity 78%
Rainfall in
Snow Depth Not available.
7:45 AM 5:55 PM
Waning Crescent, 8% visible
METAR KADG 052353Z AUTO 29007KT 10SM FEW055 04/M04 A3031 RMK AO2 SLP277 T00391039 10067 20033 51012
Pressure 30.35 in
Visibility 10.0 miles
Clouds Few 5500 ft
Windchill 32 °F
Dew Point 26 °F
Humidity 78%
Rainfall in
Snow Depth Not available.
7:45 AM 5:55 PM
Waning Crescent, 8% visible
METAR KADG 052353Z AUTO 29007KT 10SM FEW055 04/M04 A3031 RMK AO2 SLP277 T00391039 10067 20033 51012

10-Day Weather Forecast

Almanac

Astronomy

Feb. 05, 2016 Rise Set
Actual Time
Civil Twilight
Nautical Twilight
Astronomical Twilight
Moon
Length of Visible Light
Length of Day
Tomorrow will be .
, % of the Moon is Illuminated

Today's Extremes

State Highs State Lows

Community

WunderPhotos

Upload Photos

1,890,893 photos uploaded!

WunderBlog® & News

Nearby

Air Quality

  Air Quality AQ Index Pollutant
Not available.

Snow Depth

Station Depth Elevation

Earthquake Activity

City Distance Mag. Time & Date
Minimum magnitude displayed is 2.5.

Coastal Water Temperatures

Place Temperature

Stations

Nearby Weather Stations

Station Location Temp. Windchill Dew Point Humidity Wind Precip. Elev Updated Type
                   

Watches & Warnings

There are currently no watches in effect.